sensor_id;sensor_type;location;lat;lon;timestamp;pressure;altitude;pressure_sealevel;temperature;humidity
66479;BME280;53294;47.912;13.526;2022-11-25T00:01:23;96233.63;;;4.68;70.68
66479;BME280;53294;47.912;13.526;2022-11-25T00:03:53;96230.63;;;4.60;70.75
66479;BME280;53294;47.912;13.526;2022-11-25T00:06:22;96238.53;;;4.44;71.04
66479;BME280;53294;47.912;13.526;2022-11-25T00:08:52;96231.47;;;4.60;70.13
66479;BME280;53294;47.912;13.526;2022-11-25T00:11:19;96236.56;;;4.72;69.70
66479;BME280;53294;47.912;13.526;2022-11-25T00:13:46;96225.41;;;4.70;69.32
66479;BME280;53294;47.912;13.526;2022-11-25T00:16:16;96228.91;;;4.76;69.56
66479;BME280;53294;47.912;13.526;2022-11-25T00:18:51;96227.56;;;4.78;69.48
66479;BME280;53294;47.912;13.526;2022-11-25T00:21:21;96219.72;;;4.56;69.91
66479;BME280;53294;47.912;13.526;2022-11-25T00:23:58;96223.66;;;4.48;70.19
66479;BME280;53294;47.912;13.526;2022-11-25T00:26:27;96218.63;;;4.52;70.14
66479;BME280;53294;47.912;13.526;2022-11-25T00:28:57;96223.88;;;4.42;70.53
66479;BME280;53294;47.912;13.526;2022-11-25T00:31:26;96214.53;;;4.39;70.58
66479;BME280;53294;47.912;13.526;2022-11-25T00:33:53;96213.00;;;4.48;70.02
66479;BME280;53294;47.912;13.526;2022-11-25T00:36:26;96215.69;;;4.54;69.93
66479;BME280;53294;47.912;13.526;2022-11-25T00:38:54;96216.66;;;4.37;70.24
66479;BME280;53294;47.912;13.526;2022-11-25T00:41:22;96219.84;;;4.39;70.07
66479;BME280;53294;47.912;13.526;2022-11-25T00:44:12;96218.56;;;4.42;70.31
66479;BME280;53294;47.912;13.526;2022-11-25T00:46:58;96222.50;;;4.39;70.06
66479;BME280;53294;47.912;13.526;2022-11-25T00:49:24;96216.16;;;4.40;69.60
66479;BME280;53294;47.912;13.526;2022-11-25T00:51:51;96218.56;;;4.42;69.60
66479;BME280;53294;47.912;13.526;2022-11-25T00:54:18;96224.38;;;4.39;69.41
66479;BME280;53294;47.912;13.526;2022-11-25T00:56:45;96223.59;;;4.38;69.58
66479;BME280;53294;47.912;13.526;2022-11-25T00:59:11;96226.50;;;4.37;69.47
66479;BME280;53294;47.912;13.526;2022-11-25T01:01:38;96226.19;;;4.33;69.48
66479;BME280;53294;47.912;13.526;2022-11-25T01:04:05;96228.03;;;4.00;70.34
66479;BME280;53294;47.912;13.526;2022-11-25T01:06:34;96226.22;;;3.78;71.53
66479;BME280;53294;47.912;13.526;2022-11-25T01:09:00;96226.16;;;3.68;71.85
66479;BME280;53294;47.912;13.526;2022-11-25T01:11:27;96234.16;;;4.01;70.39
66479;BME280;53294;47.912;13.526;2022-11-25T01:13:54;96230.75;;;4.05;70.12
66479;BME280;53294;47.912;13.526;2022-11-25T01:16:26;96231.06;;;4.09;69.82
66479;BME280;53294;47.912;13.526;2022-11-25T01:18:53;96231.25;;;4.02;69.71
66479;BME280;53294;47.912;13.526;2022-11-25T01:21:23;96242.38;;;3.99;69.93
66479;BME280;53294;47.912;13.526;2022-11-25T01:23:50;96242.88;;;3.96;70.12
66479;BME280;53294;47.912;13.526;2022-11-25T01:26:20;96250.59;;;3.70;70.79
66479;BME280;53294;47.912;13.526;2022-11-25T01:28:47;96248.91;;;3.86;69.86
66479;BME280;53294;47.912;13.526;2022-11-25T01:31:17;96253.88;;;3.55;70.93
66479;BME280;53294;47.912;13.526;2022-11-25T01:33:45;96259.16;;;3.77;70.49
66479;BME280;53294;47.912;13.526;2022-11-25T01:36:16;96257.75;;;3.92;69.88
66479;BME280;53294;47.912;13.526;2022-11-25T01:38:44;96263.63;;;3.72;69.95
66479;BME280;53294;47.912;13.526;2022-11-25T01:41:14;96264.44;;;3.72;70.28
66479;BME280;53294;47.912;13.526;2022-11-25T01:43:41;96258.25;;;3.89;69.25
66479;BME280;53294;47.912;13.526;2022-11-25T01:48:51;96259.75;;;3.80;69.87
66479;BME280;53294;47.912;13.526;2022-11-25T01:51:38;96271.84;;;3.70;70.18
66479;BME280;53294;47.912;13.526;2022-11-25T01:54:08;96265.81;;;3.75;69.48
66479;BME280;53294;47.912;13.526;2022-11-25T01:56:47;96272.78;;;3.81;69.05
66479;BME280;53294;47.912;13.526;2022-11-25T01:59:15;96273.56;;;3.82;68.74
66479;BME280;53294;47.912;13.526;2022-11-25T02:01:42;96268.75;;;3.78;68.64
66479;BME280;53294;47.912;13.526;2022-11-25T02:04:11;96269.66;;;3.62;69.60
66479;BME280;53294;47.912;13.526;2022-11-25T02:06:42;96269.03;;;3.55;69.37
66479;BME280;53294;47.912;13.526;2022-11-25T02:09:10;96271.38;;;3.51;69.29
66479;BME280;53294;47.912;13.526;2022-11-25T02:11:41;96267.91;;;3.51;69.39
66479;BME280;53294;47.912;13.526;2022-11-25T02:14:11;96269.88;;;3.38;69.78
66479;BME280;53294;47.912;13.526;2022-11-25T02:16:38;96269.72;;;3.45;69.53
66479;BME280;53294;47.912;13.526;2022-11-25T02:19:15;96265.75;;;3.48;69.65
66479;BME280;53294;47.912;13.526;2022-11-25T02:21:48;96260.09;;;3.39;69.77
66479;BME280;53294;47.912;13.526;2022-11-25T02:24:28;96259.34;;;3.44;69.85
66479;BME280;53294;47.912;13.526;2022-11-25T02:26:56;96263.97;;;3.31;69.84
66479;BME280;53294;47.912;13.526;2022-11-25T02:29:22;96256.06;;;3.36;69.49
66479;BME280;53294;47.912;13.526;2022-11-25T02:31:49;96255.75;;;3.33;69.12
66479;BME280;53294;47.912;13.526;2022-11-25T02:34:16;96249.31;;;3.29;69.28
66479;BME280;53294;47.912;13.526;2022-11-25T02:36:43;96241.34;;;3.07;70.15
66479;BME280;53294;47.912;13.526;2022-11-25T02:39:10;96249.75;;;2.98;70.60
66479;BME280;53294;47.912;13.526;2022-11-25T02:41:43;96252.09;;;2.78;72.37
66479;BME280;53294;47.912;13.526;2022-11-25T02:44:11;96246.31;;;3.03;70.40
66479;BME280;53294;47.912;13.526;2022-11-25T02:46:38;96257.19;;;3.01;70.69
66479;BME280;53294;47.912;13.526;2022-11-25T02:49:05;96252.72;;;3.02;70.14
66479;BME280;53294;47.912;13.526;2022-11-25T02:51:36;96252.19;;;2.83;71.25
66479;BME280;53294;47.912;13.526;2022-11-25T02:54:03;96247.97;;;2.87;71.15
66479;BME280;53294;47.912;13.526;2022-11-25T02:56:33;96243.13;;;3.01;70.48
66479;BME280;53294;47.912;13.526;2022-11-25T02:59:01;96237.81;;;3.01;70.99
66479;BME280;53294;47.912;13.526;2022-11-25T03:01:29;96245.53;;;3.02;70.99
66479;BME280;53294;47.912;13.526;2022-11-25T03:04:01;96237.50;;;2.97;71.03
66479;BME280;53294;47.912;13.526;2022-11-25T03:06:28;96229.00;;;2.95;71.32
66479;BME280;53294;47.912;13.526;2022-11-25T03:08:56;96234.50;;;3.11;70.56
66479;BME280;53294;47.912;13.526;2022-11-25T03:11:23;96226.38;;;3.17;70.24
66479;BME280;53294;47.912;13.526;2022-11-25T03:14:10;96226.53;;;3.11;70.15
66479;BME280;53294;47.912;13.526;2022-11-25T03:16:36;96235.66;;;2.98;70.78
66479;BME280;53294;47.912;13.526;2022-11-25T03:19:04;96234.97;;;2.68;72.22
66479;BME280;53294;47.912;13.526;2022-11-25T03:21:30;96233.72;;;2.54;72.80
66479;BME280;53294;47.912;13.526;2022-11-25T03:23:57;96238.47;;;2.52;72.52
66479;BME280;53294;47.912;13.526;2022-11-25T03:26:24;96233.31;;;2.62;72.18
66479;BME280;53294;47.912;13.526;2022-11-25T03:28:51;96230.31;;;2.76;71.68
66479;BME280;53294;47.912;13.526;2022-11-25T03:31:18;96235.44;;;2.82;71.41
66479;BME280;53294;47.912;13.526;2022-11-25T03:33:45;96232.22;;;2.97;70.60
66479;BME280;53294;47.912;13.526;2022-11-25T03:36:11;96240.09;;;2.92;70.75
66479;BME280;53294;47.912;13.526;2022-11-25T03:38:38;96243.66;;;2.81;71.40
66479;BME280;53294;47.912;13.526;2022-11-25T03:41:05;96241.59;;;2.49;72.55
66479;BME280;53294;47.912;13.526;2022-11-25T03:43:32;96240.47;;;2.62;71.95
66479;BME280;53294;47.912;13.526;2022-11-25T03:46:00;96239.97;;;2.82;71.15
66479;BME280;53294;47.912;13.526;2022-11-25T03:48:27;96248.94;;;2.81;70.92
66479;BME280;53294;47.912;13.526;2022-11-25T03:50:54;96240.47;;;2.45;72.43
66479;BME280;53294;47.912;13.526;2022-11-25T03:53:21;96241.19;;;2.57;71.74
66479;BME280;53294;47.912;13.526;2022-11-25T03:55:47;96234.44;;;2.66;70.98
66479;BME280;53294;47.912;13.526;2022-11-25T03:58:14;96235.13;;;2.79;70.31
66479;BME280;53294;47.912;13.526;2022-11-25T04:00:41;96243.34;;;2.77;70.29
66479;BME280;53294;47.912;13.526;2022-11-25T04:03:07;96246.09;;;2.31;72.37
66479;BME280;53294;47.912;13.526;2022-11-25T04:05:34;96236.78;;;2.46;71.72
66479;BME280;53294;47.912;13.526;2022-11-25T04:08:00;96240.53;;;2.33;72.22
66479;BME280;53294;47.912;13.526;2022-11-25T04:10:27;96228.91;;;2.17;73.05
66479;BME280;53294;47.912;13.526;2022-11-25T04:12:54;96244.50;;;2.13;72.98
66479;BME280;53294;47.912;13.526;2022-11-25T04:15:20;96240.16;;;2.24;72.81
66479;BME280;53294;47.912;13.526;2022-11-25T04:17:47;96242.41;;;2.49;71.36
66479;BME280;53294;47.912;13.526;2022-11-25T04:20:14;96244.63;;;2.58;70.83
66479;BME280;53294;47.912;13.526;2022-11-25T04:22:41;96247.78;;;2.38;71.41
66479;BME280;53294;47.912;13.526;2022-11-25T04:25:08;96240.78;;;2.31;71.51
66479;BME280;53294;47.912;13.526;2022-11-25T04:27:35;96238.13;;;2.31;71.54
66479;BME280;53294;47.912;13.526;2022-11-25T04:30:01;96238.38;;;2.13;72.25
66479;BME280;53294;47.912;13.526;2022-11-25T04:32:28;96244.00;;;2.17;71.97
66479;BME280;53294;47.912;13.526;2022-11-25T04:34:55;96238.63;;;2.28;71.29
66479;BME280;53294;47.912;13.526;2022-11-25T04:37:21;96239.13;;;2.25;71.64
66479;BME280;53294;47.912;13.526;2022-11-25T04:39:48;96246.09;;;2.31;71.35
66479;BME280;53294;47.912;13.526;2022-11-25T04:42:15;96252.16;;;1.98;72.40
66479;BME280;53294;47.912;13.526;2022-11-25T04:44:58;96249.47;;;2.10;72.06
66479;BME280;53294;47.912;13.526;2022-11-25T04:47:45;96251.72;;;2.18;71.44
66479;BME280;53294;47.912;13.526;2022-11-25T04:50:16;96247.56;;;2.22;71.45
66479;BME280;53294;47.912;13.526;2022-11-25T04:52:44;96255.09;;;2.30;71.08
66479;BME280;53294;47.912;13.526;2022-11-25T04:55:10;96244.50;;;2.30;70.78
66479;BME280;53294;47.912;13.526;2022-11-25T04:57:37;96247.19;;;2.02;71.90
66479;BME280;53294;47.912;13.526;2022-11-25T05:00:04;96246.91;;;2.15;71.55
66479;BME280;53294;47.912;13.526;2022-11-25T05:02:31;96245.34;;;1.85;72.41
66479;BME280;53294;47.912;13.526;2022-11-25T05:04:58;96244.00;;;2.00;71.88
66479;BME280;53294;47.912;13.526;2022-11-25T05:07:26;96250.56;;;2.14;71.33
66479;BME280;53294;47.912;13.526;2022-11-25T05:09:53;96254.09;;;2.03;71.53
66479;BME280;53294;47.912;13.526;2022-11-25T05:12:24;96253.44;;;1.95;71.96
66479;BME280;53294;47.912;13.526;2022-11-25T05:14:51;96255.94;;;1.85;72.15
66479;BME280;53294;47.912;13.526;2022-11-25T05:17:20;96253.75;;;1.82;72.34
66479;BME280;53294;47.912;13.526;2022-11-25T05:19:47;96250.75;;;1.78;72.41
66479;BME280;53294;47.912;13.526;2022-11-25T05:22:20;96253.56;;;1.72;72.54
66479;BME280;53294;47.912;13.526;2022-11-25T05:24:47;96250.13;;;1.71;72.80
66479;BME280;53294;47.912;13.526;2022-11-25T05:27:14;96251.50;;;1.91;71.79
66479;BME280;53294;47.912;13.526;2022-11-25T05:29:41;96247.31;;;1.78;72.25
66479;BME280;53294;47.912;13.526;2022-11-25T05:32:08;96255.34;;;1.83;71.96
66479;BME280;53294;47.912;13.526;2022-11-25T05:34:35;96253.34;;;1.61;72.72
66479;BME280;53294;47.912;13.526;2022-11-25T05:37:03;96257.84;;;1.61;73.22
66479;BME280;53294;47.912;13.526;2022-11-25T05:39:30;96258.56;;;1.56;72.93
66479;BME280;53294;47.912;13.526;2022-11-25T05:41:56;96250.19;;;1.76;71.85
66479;BME280;53294;47.912;13.526;2022-11-25T05:44:23;96250.25;;;1.93;71.44
66479;BME280;53294;47.912;13.526;2022-11-25T05:46:50;96249.28;;;2.00;70.66
66479;BME280;53294;47.912;13.526;2022-11-25T05:49:17;96254.41;;;1.89;71.32
66479;BME280;53294;47.912;13.526;2022-11-25T05:51:44;96256.81;;;1.91;71.25
66479;BME280;53294;47.912;13.526;2022-11-25T05:54:11;96258.84;;;1.72;72.01
66479;BME280;53294;47.912;13.526;2022-11-25T05:56:38;96267.84;;;1.71;71.94
66479;BME280;53294;47.912;13.526;2022-11-25T05:59:05;96266.72;;;1.67;72.04
66479;BME280;53294;47.912;13.526;2022-11-25T06:01:32;96266.56;;;1.73;71.69
66479;BME280;53294;47.912;13.526;2022-11-25T06:04:03;96279.94;;;1.67;72.16
66479;BME280;53294;47.912;13.526;2022-11-25T06:06:30;96275.63;;;1.49;72.90
66479;BME280;53294;47.912;13.526;2022-11-25T06:08:57;96278.41;;;1.42;73.32
66479;BME280;53294;47.912;13.526;2022-11-25T06:11:24;96281.91;;;1.31;74.19
66479;BME280;53294;47.912;13.526;2022-11-25T06:13:51;96284.72;;;1.41;73.65
66479;BME280;53294;47.912;13.526;2022-11-25T06:16:20;96285.97;;;1.50;73.54
66479;BME280;53294;47.912;13.526;2022-11-25T06:18:48;96288.47;;;1.69;72.49
66479;BME280;53294;47.912;13.526;2022-11-25T06:21:15;96295.59;;;1.68;72.31
66479;BME280;53294;47.912;13.526;2022-11-25T06:23:42;96295.31;;;1.82;71.81
66479;BME280;53294;47.912;13.526;2022-11-25T06:26:19;96294.94;;;1.61;73.10
66479;BME280;53294;47.912;13.526;2022-11-25T06:28:46;96289.78;;;1.54;73.31
66479;BME280;53294;47.912;13.526;2022-11-25T06:31:16;96296.47;;;1.45;73.71
66479;BME280;53294;47.912;13.526;2022-11-25T06:33:47;96289.50;;;1.68;72.83
66479;BME280;53294;47.912;13.526;2022-11-25T06:36:15;96299.81;;;1.81;72.18
66479;BME280;53294;47.912;13.526;2022-11-25T06:38:46;96300.28;;;1.78;72.33
66479;BME280;53294;47.912;13.526;2022-11-25T06:41:13;96297.25;;;1.86;71.95
66479;BME280;53294;47.912;13.526;2022-11-25T06:43:40;96305.16;;;1.98;71.72
66479;BME280;53294;47.912;13.526;2022-11-25T06:46:09;96316.91;;;2.02;71.35
66479;BME280;53294;47.912;13.526;2022-11-25T06:48:36;96311.72;;;1.95;71.74
66479;BME280;53294;47.912;13.526;2022-11-25T06:51:05;96312.19;;;1.92;72.13
66479;BME280;53294;47.912;13.526;2022-11-25T06:53:33;96319.69;;;1.95;71.75
66479;BME280;53294;47.912;13.526;2022-11-25T06:56:21;96315.72;;;2.10;72.08
66479;BME280;53294;47.912;13.526;2022-11-25T06:58:49;96323.09;;;2.08;71.82
66479;BME280;53294;47.912;13.526;2022-11-25T07:01:18;96321.25;;;2.08;72.02
66479;BME280;53294;47.912;13.526;2022-11-25T07:03:47;96327.28;;;2.04;72.44
66479;BME280;53294;47.912;13.526;2022-11-25T07:06:15;96320.31;;;2.14;71.91
66479;BME280;53294;47.912;13.526;2022-11-25T07:08:43;96321.31;;;2.25;71.47
66479;BME280;53294;47.912;13.526;2022-11-25T07:11:30;96314.69;;;2.28;71.90
66479;BME280;53294;47.912;13.526;2022-11-25T07:14:00;96315.81;;;2.15;72.22
66479;BME280;53294;47.912;13.526;2022-11-25T07:16:28;96321.78;;;2.22;72.30
66479;BME280;53294;47.912;13.526;2022-11-25T07:18:55;96324.03;;;2.30;71.72
66479;BME280;53294;47.912;13.526;2022-11-25T07:21:23;96328.94;;;2.39;71.57
66479;BME280;53294;47.912;13.526;2022-11-25T07:23:51;96332.25;;;2.46;71.67
66479;BME280;53294;47.912;13.526;2022-11-25T07:26:23;96328.53;;;2.47;71.45
66479;BME280;53294;47.912;13.526;2022-11-25T07:28:52;96329.19;;;2.54;71.65
66479;BME280;53294;47.912;13.526;2022-11-25T07:31:23;96343.19;;;2.66;71.55
66479;BME280;53294;47.912;13.526;2022-11-25T07:34:01;96339.03;;;2.71;71.75
66479;BME280;53294;47.912;13.526;2022-11-25T07:36:29;96339.41;;;2.62;72.12
66479;BME280;53294;47.912;13.526;2022-11-25T07:38:58;96332.56;;;2.66;72.02
66479;BME280;53294;47.912;13.526;2022-11-25T07:41:26;96335.47;;;2.82;71.94
66479;BME280;53294;47.912;13.526;2022-11-25T07:43:56;96329.44;;;2.86;72.56
66479;BME280;53294;47.912;13.526;2022-11-25T07:46:31;96332.03;;;2.98;72.88
66479;BME280;53294;47.912;13.526;2022-11-25T07:49:10;96324.66;;;3.05;72.94
66479;BME280;53294;47.912;13.526;2022-11-25T07:51:42;96331.72;;;3.17;73.36
66479;BME280;53294;47.912;13.526;2022-11-25T07:54:10;96331.31;;;3.25;73.45
66479;BME280;53294;47.912;13.526;2022-11-25T07:56:39;96340.28;;;3.41;74.16
66479;BME280;53294;47.912;13.526;2022-11-25T07:59:10;96335.44;;;3.55;74.54
66479;BME280;53294;47.912;13.526;2022-11-25T08:01:38;96336.13;;;3.67;75.65
66479;BME280;53294;47.912;13.526;2022-11-25T08:04:06;96331.03;;;3.88;76.32
66479;BME280;53294;47.912;13.526;2022-11-25T08:06:43;96329.16;;;4.10;76.16
66479;BME280;53294;47.912;13.526;2022-11-25T08:09:12;96329.66;;;4.35;76.92
66479;BME280;53294;47.912;13.526;2022-11-25T08:11:40;96320.31;;;4.59;77.30
66479;BME280;53294;47.912;13.526;2022-11-25T08:14:07;96318.00;;;4.68;78.25
66479;BME280;53294;47.912;13.526;2022-11-25T08:16:36;96312.22;;;4.81;78.77
66479;BME280;53294;47.912;13.526;2022-11-25T08:19:06;96311.31;;;5.03;78.78
66479;BME280;53294;47.912;13.526;2022-11-25T08:21:33;96315.09;;;5.07;79.66
66479;BME280;53294;47.912;13.526;2022-11-25T08:23:59;96312.63;;;5.43;79.73
66479;BME280;53294;47.912;13.526;2022-11-25T08:26:30;96311.19;;;5.83;78.44
66479;BME280;53294;47.912;13.526;2022-11-25T08:29:00;96305.28;;;5.76;80.06
66479;BME280;53294;47.912;13.526;2022-11-25T08:31:29;96305.91;;;5.93;80.81
66479;BME280;53294;47.912;13.526;2022-11-25T08:33:57;96311.84;;;6.21;79.53
66479;BME280;53294;47.912;13.526;2022-11-25T08:36:24;96303.91;;;6.68;78.38
66479;BME280;53294;47.912;13.526;2022-11-25T08:38:54;96309.22;;;6.37;79.13
66479;BME280;53294;47.912;13.526;2022-11-25T08:41:26;96299.09;;;6.64;79.10
66479;BME280;53294;47.912;13.526;2022-11-25T08:43:55;96308.44;;;6.98;80.47
66479;BME280;53294;47.912;13.526;2022-11-25T08:46:24;96298.00;;;7.01;77.47
66479;BME280;53294;47.912;13.526;2022-11-25T08:48:52;96297.97;;;7.22;79.91
66479;BME280;53294;47.912;13.526;2022-11-25T08:51:23;96297.88;;;7.58;80.81
66479;BME280;53294;47.912;13.526;2022-11-25T08:53:50;96282.81;;;7.78;78.35
66479;BME280;53294;47.912;13.526;2022-11-25T08:56:18;96285.63;;;8.07;77.76
66479;BME280;53294;47.912;13.526;2022-11-25T08:58:51;96292.94;;;7.86;74.89
66479;BME280;53294;47.912;13.526;2022-11-25T09:01:18;96295.47;;;8.17;76.04
66479;BME280;53294;47.912;13.526;2022-11-25T09:03:48;96300.22;;;8.30;76.80
66479;BME280;53294;47.912;13.526;2022-11-25T09:06:16;96296.44;;;8.31;72.10
66479;BME280;53294;47.912;13.526;2022-11-25T09:08:44;96283.44;;;9.47;72.35
66479;BME280;53294;47.912;13.526;2022-11-25T09:11:11;96283.59;;;9.56;71.00
66479;BME280;53294;47.912;13.526;2022-11-25T09:13:38;96284.50;;;9.70;70.13
66479;BME280;53294;47.912;13.526;2022-11-25T09:16:05;96283.84;;;9.78;69.35
66479;BME280;53294;47.912;13.526;2022-11-25T09:18:32;96280.19;;;9.74;71.31
66479;BME280;53294;47.912;13.526;2022-11-25T09:21:06;96278.19;;;10.04;70.89
66479;BME280;53294;47.912;13.526;2022-11-25T09:23:33;96271.94;;;10.09;70.43
66479;BME280;53294;47.912;13.526;2022-11-25T09:26:00;96275.03;;;9.97;70.67
66479;BME280;53294;47.912;13.526;2022-11-25T09:28:27;96281.44;;;10.01;70.27
66479;BME280;53294;47.912;13.526;2022-11-25T09:30:53;96278.56;;;10.16;70.57
66479;BME280;53294;47.912;13.526;2022-11-25T09:33:20;96276.28;;;10.23;70.66
66479;BME280;53294;47.912;13.526;2022-11-25T09:35:47;96274.34;;;10.10;69.64
66479;BME280;53294;47.912;13.526;2022-11-25T09:38:15;96285.47;;;10.41;70.58
66479;BME280;53294;47.912;13.526;2022-11-25T09:52:02;96277.44;;;10.17;68.45
66479;BME280;53294;47.912;13.526;2022-11-25T09:54:42;96281.03;;;10.32;66.74
66479;BME280;53294;47.912;13.526;2022-11-25T09:57:19;96279.56;;;10.20;67.78
66479;BME280;53294;47.912;13.526;2022-11-25T10:00:10;96277.53;;;10.12;65.32
66479;BME280;53294;47.912;13.526;2022-11-25T10:02:46;96278.66;;;9.87;68.01
66479;BME280;53294;47.912;13.526;2022-11-25T10:05:24;96276.50;;;10.08;67.52
66479;BME280;53294;47.912;13.526;2022-11-25T10:07:55;96285.06;;;10.10;66.77
66479;BME280;53294;47.912;13.526;2022-11-25T10:10:30;96280.13;;;10.17;66.12
66479;BME280;53294;47.912;13.526;2022-11-25T10:12:58;96276.69;;;9.93;65.84
66479;BME280;53294;47.912;13.526;2022-11-25T10:15:28;96272.72;;;9.90;66.29
66479;BME280;53294;47.912;13.526;2022-11-25T10:18:57;96281.34;;;9.63;64.89
66479;BME280;53294;47.912;13.526;2022-11-25T10:20:57;96273.31;;;9.63;66.36
66479;BME280;53294;47.912;13.526;2022-11-25T10:23:31;96273.69;;;9.75;66.75
66479;BME280;53294;47.912;13.526;2022-11-25T10:26:10;96269.09;;;10.00;66.59
66479;BME280;53294;47.912;13.526;2022-11-25T10:28:40;96275.53;;;9.99;66.18
66479;BME280;53294;47.912;13.526;2022-11-25T10:31:19;96277.16;;;10.00;65.45
66479;BME280;53294;47.912;13.526;2022-11-25T10:33:51;96280.22;;;9.69;65.47
66479;BME280;53294;47.912;13.526;2022-11-25T10:36:24;96282.41;;;9.67;65.27
66479;BME280;53294;47.912;13.526;2022-11-25T10:38:59;96276.91;;;9.77;65.35
66479;BME280;53294;47.912;13.526;2022-11-25T10:41:35;96278.63;;;9.68;64.91
66479;BME280;53294;47.912;13.526;2022-11-25T10:44:03;96285.47;;;9.79;65.26
66479;BME280;53294;47.912;13.526;2022-11-25T10:46:41;96280.63;;;10.00;65.36
66479;BME280;53294;47.912;13.526;2022-11-25T10:49:37;96276.38;;;10.18;64.74
66479;BME280;53294;47.912;13.526;2022-11-25T10:52:11;96269.97;;;10.14;64.93
66479;BME280;53294;47.912;13.526;2022-11-25T10:54:39;96276.38;;;10.18;65.03
66479;BME280;53294;47.912;13.526;2022-11-25T10:57:18;96278.97;;;10.23;64.91
66479;BME280;53294;47.912;13.526;2022-11-25T11:00:05;96280.22;;;9.69;64.78
66479;BME280;53294;47.912;13.526;2022-11-25T11:02:39;96283.22;;;9.43;65.29
66479;BME280;53294;47.912;13.526;2022-11-25T11:07:41;96276.94;;;9.96;65.13
66479;BME280;53294;47.912;13.526;2022-11-25T11:10:22;96273.53;;;10.29;65.21
66479;BME280;53294;47.912;13.526;2022-11-25T11:12:50;96276.69;;;10.36;65.61
66479;BME280;53294;47.912;13.526;2022-11-25T11:15:22;96275.38;;;10.52;65.44
66479;BME280;53294;47.912;13.526;2022-11-25T11:17:50;96273.97;;;10.55;65.54
66479;BME280;53294;47.912;13.526;2022-11-25T11:20:27;96277.38;;;10.60;64.90
66479;BME280;53294;47.912;13.526;2022-11-25T11:23:01;96281.63;;;10.81;64.12
66479;BME280;53294;47.912;13.526;2022-11-25T11:25:36;96278.22;;;10.75;65.14
66479;BME280;53294;47.912;13.526;2022-11-25T11:28:28;96267.16;;;10.95;63.56
66479;BME280;53294;47.912;13.526;2022-11-25T11:31:04;96272.13;;;11.02;63.83
66479;BME280;53294;47.912;13.526;2022-11-25T11:33:42;96266.13;;;10.91;62.51
66479;BME280;53294;47.912;13.526;2022-11-25T11:39:00;96264.69;;;10.09;63.10
66479;BME280;53294;47.912;13.526;2022-11-25T11:47:02;96269.22;;;10.52;62.39
66479;BME280;53294;47.912;13.526;2022-11-25T11:54:53;96277.69;;;10.40;62.14
66479;BME280;53294;47.912;13.526;2022-11-25T11:57:38;96281.34;;;9.87;63.10
66479;BME280;53294;47.912;13.526;2022-11-25T12:00:23;96282.03;;;10.36;63.47
66479;BME280;53294;47.912;13.526;2022-11-25T12:02:53;96277.22;;;10.71;63.14
66479;BME280;53294;47.912;13.526;2022-11-25T12:05:25;96287.53;;;10.96;63.08
66479;BME280;53294;47.912;13.526;2022-11-25T12:08:10;96285.13;;;11.42;61.83
66479;BME280;53294;47.912;13.526;2022-11-25T12:13:42;96288.50;;;11.34;61.36
66479;BME280;53294;47.912;13.526;2022-11-25T12:16:16;96294.75;;;11.15;61.35
66479;BME280;53294;47.912;13.526;2022-11-25T12:27:25;96285.63;;;10.83;60.89
66479;BME280;53294;47.912;13.526;2022-11-25T12:30:04;96290.25;;;11.10;62.14
66479;BME280;53294;47.912;13.526;2022-11-25T12:35:55;96293.22;;;11.97;59.74
66479;BME280;53294;47.912;13.526;2022-11-25T12:41:18;96285.25;;;11.92;57.33
66479;BME280;53294;47.912;13.526;2022-11-25T12:43:53;96288.34;;;11.85;59.89
66479;BME280;53294;47.912;13.526;2022-11-25T12:46:39;96295.28;;;11.86;59.35
66479;BME280;53294;47.912;13.526;2022-11-25T12:49:14;96299.88;;;11.86;60.25
66479;BME280;53294;47.912;13.526;2022-11-25T13:00:22;96311.63;;;11.35;58.71
66479;BME280;53294;47.912;13.526;2022-11-25T13:03:28;96309.56;;;11.73;58.15
66479;BME280;53294;47.912;13.526;2022-11-25T13:09:02;96312.22;;;12.15;58.76
66479;BME280;53294;47.912;13.526;2022-11-25T13:16:30;96310.50;;;11.96;58.07
66479;BME280;53294;47.912;13.526;2022-11-25T13:18:58;96318.84;;;11.81;58.28
66479;BME280;53294;47.912;13.526;2022-11-25T13:21:25;96307.84;;;12.19;57.56
66479;BME280;53294;47.912;13.526;2022-11-25T13:23:54;96302.78;;;11.76;57.66
66479;BME280;53294;47.912;13.526;2022-11-25T13:31:33;96290.31;;;11.52;58.31
66479;BME280;53294;47.912;13.526;2022-11-25T13:34:25;96299.09;;;11.44;57.28
66479;BME280;53294;47.912;13.526;2022-11-25T13:36:56;96301.63;;;11.21;59.03
66479;BME280;53294;47.912;13.526;2022-11-25T13:39:34;96299.75;;;11.36;58.15
66479;BME280;53294;47.912;13.526;2022-11-25T13:42:02;96298.78;;;11.31;58.73
66479;BME280;53294;47.912;13.526;2022-11-25T13:44:33;96290.31;;;11.52;58.92
66479;BME280;53294;47.912;13.526;2022-11-25T13:50:18;96297.50;;;11.57;59.18
66479;BME280;53294;47.912;13.526;2022-11-25T13:53:02;96301.09;;;11.52;59.37
66479;BME280;53294;47.912;13.526;2022-11-25T13:55:37;96295.69;;;11.52;59.17
66479;BME280;53294;47.912;13.526;2022-11-25T14:08:41;96302.31;;;12.01;56.38
66479;BME280;53294;47.912;13.526;2022-11-25T14:14:41;96309.09;;;12.72;56.98
66479;BME280;53294;47.912;13.526;2022-11-25T14:25:45;96307.19;;;11.99;56.79
66479;BME280;53294;47.912;13.526;2022-11-25T14:28:23;96320.22;;;12.20;55.99
66479;BME280;53294;47.912;13.526;2022-11-25T14:30:55;96311.22;;;12.38;56.50
66479;BME280;53294;47.912;13.526;2022-11-25T14:33:33;96316.94;;;12.23;55.75
66479;BME280;53294;47.912;13.526;2022-11-25T14:36:10;96308.59;;;12.33;57.08
66479;BME280;53294;47.912;13.526;2022-11-25T14:38:58;96314.16;;;12.51;55.60
66479;BME280;53294;47.912;13.526;2022-11-25T14:41:35;96310.09;;;12.39;55.84
66479;BME280;53294;47.912;13.526;2022-11-25T14:44:13;96309.56;;;12.51;56.14
66479;BME280;53294;47.912;13.526;2022-11-25T14:46:53;96311.97;;;12.53;55.58
66479;BME280;53294;47.912;13.526;2022-11-25T14:49:20;96312.06;;;12.11;57.31
66479;BME280;53294;47.912;13.526;2022-11-25T14:52:07;96308.53;;;13.06;55.84